createdAt,value
2018-04-23T00:00:13.985Z,60.16
2018-04-23T00:02:42.606Z,63.64
2018-04-23T00:05:10.825Z,61.47
2018-04-23T00:07:39.195Z,62.55
2018-04-23T00:10:07.780Z,65.51
2018-04-23T00:12:36.117Z,64.69
2018-04-23T00:15:04.384Z,64.96
2018-04-23T00:17:33.083Z,65.90
2018-04-23T00:20:01.299Z,68.11
2018-04-23T00:22:29.608Z,71.38
2018-04-23T00:24:58.118Z,71.91
2018-04-23T00:27:26.331Z,73.35
2018-04-23T00:29:54.730Z,76.75
2018-04-23T00:32:23.359Z,78.43
2018-04-23T00:34:51.604Z,80.77
2018-04-23T00:37:19.807Z,80.36
2018-04-23T00:39:48.518Z,81.98
2018-04-23T00:42:16.729Z,82.84
2018-04-23T00:44:44.949Z,82.77
2018-04-23T00:47:13.576Z,81.99
2018-04-23T00:49:41.785Z,82.91
2018-04-23T00:52:10.104Z,82.26
2018-04-23T00:54:38.718Z,81.37
2018-04-23T00:57:07.014Z,82.17
2018-04-23T00:59:35.310Z,81.71
2018-04-23T01:02:04.054Z,81.76
2018-04-23T01:04:32.291Z,81.39
2018-04-23T01:07:00.612Z,80.38
2018-04-23T01:09:29.116Z,80.86
2018-04-23T01:11:57.328Z,81.25
2018-04-23T01:14:25.691Z,80.21
2018-04-23T01:16:54.439Z,80.86
2018-04-23T01:19:22.699Z,80.73
2018-04-23T01:21:50.908Z,80.75
2018-04-23T01:24:19.448Z,80.11
2018-04-23T01:26:47.696Z,81.11
2018-04-23T01:29:16.060Z,80.85
2018-04-23T01:31:44.685Z,79.83
2018-04-23T01:34:12.928Z,80.24
2018-04-23T01:36:41.337Z,80.07
2018-04-23T01:39:10.007Z,80.58
2018-04-23T01:41:38.224Z,80.33
2018-04-23T01:44:07.316Z,80.53
2018-04-23T01:46:35.866Z,78.92
2018-04-23T01:49:04.534Z,79.42
2018-04-23T01:51:32.740Z,78.99
2018-04-23T01:54:00.957Z,79.65
2018-04-23T01:56:29.615Z,79.50
2018-04-23T01:58:57.844Z,78.91
2018-04-23T02:01:26.165Z,77.86
2018-04-23T02:03:54.842Z,78.75
2018-04-23T02:06:23.081Z,79.06
2018-04-23T02:08:51.288Z,79.52
2018-04-23T02:11:19.973Z,79.47
2018-04-23T02:13:48.216Z,79.20
2018-04-23T02:16:16.431Z,78.51
2018-04-23T02:18:45.210Z,78.25
2018-04-23T02:21:13.422Z,77.56
2018-04-23T02:23:42.214Z,78.05
2018-04-23T02:26:10.989Z,77.69
2018-04-23T02:28:39.213Z,78.00
2018-04-23T02:31:07.445Z,77.82
2018-04-23T02:33:36.180Z,77.11
2018-04-23T02:36:04.392Z,77.01
2018-04-23T02:41:08.697Z,77.18
2018-04-23T02:43:37.312Z,76.88
2018-04-23T02:46:05.560Z,77.86
2018-04-23T02:48:33.873Z,76.93
2018-04-23T02:51:02.449Z,76.63
2018-04-23T02:53:30.701Z,77.08
2018-04-23T02:55:58.968Z,76.70
2018-04-23T02:58:27.525Z,76.57
2018-04-23T03:00:55.737Z,76.63
2018-04-23T03:03:24.084Z,75.68
2018-04-23T03:05:52.675Z,77.23
2018-04-23T03:08:20.972Z,78.35
2018-04-23T03:10:49.267Z,79.32
2018-04-23T03:13:17.980Z,79.46
2018-04-23T03:15:46.245Z,79.45
2018-04-23T03:18:14.471Z,78.46
2018-04-23T03:20:43.040Z,77.44
2018-04-23T03:23:11.256Z,75.47
2018-04-23T03:25:52.691Z,74.59
2018-04-23T03:28:26.563Z,74.86
2018-04-23T03:30:54.763Z,72.21
2018-04-23T03:33:23.268Z,72.59
2018-04-23T03:35:51.523Z,72.57
2018-04-23T03:38:19.906Z,72.82
2018-04-23T03:40:48.427Z,71.92
2018-04-23T03:43:16.677Z,72.90
2018-04-23T03:45:45.055Z,73.15
2018-04-23T03:48:13.568Z,73.58
2018-04-23T03:50:54.432Z,73.48
2018-04-23T03:53:23.090Z,72.35
2018-04-23T03:55:51.525Z,73.00
2018-04-23T03:58:20.362Z,73.06
2018-04-23T04:00:48.886Z,73.51
2018-04-23T04:03:17.162Z,74.32
2018-04-23T04:05:45.638Z,74.60
2018-04-23T04:08:14.596Z,73.28
2018-04-23T04:10:42.836Z,72.38
2018-04-23T04:16:29.010Z,73.04
2018-04-23T04:18:57.210Z,71.96
2018-04-23T04:21:25.460Z,71.24
2018-04-23T04:23:54.145Z,71.87
2018-04-23T04:26:22.361Z,71.06
2018-04-23T04:28:50.685Z,69.97
2018-04-23T04:31:19.400Z,70.69
2018-04-23T04:33:47.639Z,69.28
2018-04-23T04:36:15.841Z,70.47
2018-04-23T04:38:44.526Z,69.15
2018-04-23T04:41:12.733Z,67.94
2018-04-23T04:43:40.925Z,68.85
2018-04-23T04:46:09.604Z,68.39
2018-04-23T04:48:37.801Z,69.49
2018-04-23T04:51:06.003Z,68.82
2018-04-23T04:53:36.334Z,68.74
2018-04-23T04:56:05.007Z,69.26
2018-04-23T04:58:33.237Z,70.05
2018-04-23T05:01:01.986Z,69.62
2018-04-23T05:03:30.889Z,69.86
2018-04-23T05:05:59.161Z,69.85
2018-04-23T05:08:27.601Z,70.62
2018-04-23T05:10:56.200Z,70.10
2018-04-23T05:13:24.431Z,70.39
2018-04-23T05:15:52.668Z,69.90
2018-04-23T05:18:21.337Z,70.07
2018-04-23T05:20:50.430Z,70.21
2018-04-23T05:23:18.622Z,69.94
2018-04-23T05:25:47.417Z,70.56
2018-04-23T05:28:15.673Z,69.66
2018-04-23T05:30:43.881Z,69.82
2018-04-23T05:33:12.616Z,70.67
2018-04-23T05:35:40.912Z,70.68
2018-04-23T05:38:09.117Z,71.69
2018-04-23T05:40:37.746Z,71.28
2018-04-23T05:43:06.009Z,71.38
2018-04-23T05:45:34.223Z,70.72
2018-04-23T05:48:02.907Z,70.43
2018-04-23T05:50:31.496Z,70.58
2018-04-23T05:52:59.697Z,69.33
2018-04-23T05:55:28.243Z,69.14
2018-04-23T05:57:56.933Z,68.98
2018-04-23T06:00:25.125Z,68.27
2018-04-23T06:02:53.323Z,69.49
2018-04-23T06:05:21.969Z,69.42
2018-04-23T06:07:50.669Z,68.69
2018-04-23T06:10:20.094Z,66.93
2018-04-23T06:12:48.591Z,67.05
2018-04-23T06:15:17.158Z,66.35
2018-04-23T06:17:45.365Z,65.93
2018-04-23T06:20:13.621Z,66.66
2018-04-23T06:22:42.286Z,65.79
2018-04-23T06:25:10.508Z,65.56
2018-04-23T06:27:38.730Z,66.23
2018-04-23T06:30:07.411Z,64.72
2018-04-23T06:32:35.617Z,65.40
2018-04-23T06:35:03.828Z,63.85
2018-04-23T06:37:32.914Z,63.43
2018-04-23T06:40:01.132Z,62.42
2018-04-23T06:42:29.634Z,62.36
2018-04-23T06:44:58.183Z,61.37
2018-04-23T06:47:26.402Z,61.54
2018-04-23T06:49:54.721Z,61.58
2018-04-23T06:52:23.275Z,60.18
2018-04-23T06:54:51.463Z,59.71
2018-04-23T06:57:19.913Z,60.63
2018-04-23T06:59:48.539Z,60.12
2018-04-23T07:02:16.791Z,61.66
2018-04-23T07:04:45.019Z,59.99
2018-04-23T07:07:14.139Z,59.96
2018-04-23T07:09:44.040Z,59.59
2018-04-23T07:12:12.293Z,58.52
2018-04-23T07:14:40.491Z,58.87
2018-04-23T07:17:08.971Z,58.16
2018-04-23T07:19:38.140Z,58.37
2018-04-23T07:22:06.340Z,58.79
2018-04-23T07:24:34.559Z,58.10
2018-04-23T07:27:03.140Z,57.87
2018-04-23T07:29:33.165Z,57.86
2018-04-23T07:32:01.367Z,59.58
2018-04-23T07:34:29.560Z,56.86
2018-04-23T07:36:58.215Z,57.15
2018-04-23T07:39:26.406Z,57.78
2018-04-23T07:41:54.682Z,57.55
2018-04-23T07:44:23.317Z,58.64
2018-04-23T07:46:51.559Z,58.52
2018-04-23T07:49:19.771Z,58.90
2018-04-23T07:51:48.478Z,60.28
2018-04-23T07:54:16.742Z,59.45
2018-04-23T07:56:44.926Z,58.13
2018-04-23T07:59:13.854Z,57.90
2018-04-23T08:01:42.132Z,57.66
2018-04-23T08:04:10.706Z,56.80
2018-04-23T08:06:39.263Z,60.77
2018-04-23T08:09:07.487Z,58.15
2018-04-23T08:11:35.736Z,55.64
2018-04-23T08:14:04.395Z,54.82
2018-04-23T08:16:32.646Z,53.75
2018-04-23T08:19:00.846Z,54.93
2018-04-23T08:21:29.399Z,54.32
2018-04-23T08:23:57.596Z,53.89
2018-04-23T08:26:25.995Z,54.54
2018-04-23T08:28:54.558Z,53.50
2018-04-23T08:31:22.780Z,54.63
2018-04-23T08:33:51.176Z,54.35
2018-04-23T08:36:19.776Z,55.58
2018-04-23T08:38:48.008Z,56.89
2018-04-23T08:41:16.234Z,55.08
2018-04-23T08:43:44.966Z,55.36
2018-04-23T08:46:13.192Z,54.99
2018-04-23T08:48:41.438Z,54.64
2018-04-23T08:51:10.076Z,53.92
2018-04-23T08:53:38.284Z,53.61
2018-04-23T08:56:06.527Z,52.43
2018-04-23T08:58:35.140Z,52.26
2018-04-23T09:01:03.360Z,52.57
2018-04-23T09:03:31.583Z,53.19
2018-04-23T09:06:00.157Z,53.62
2018-04-23T09:08:28.358Z,51.97
2018-04-23T09:10:56.745Z,51.14
2018-04-23T09:13:26.229Z,51.67
2018-04-23T09:15:54.780Z,51.10
2018-04-23T09:18:22.964Z,51.50
2018-04-23T09:20:51.410Z,52.13
2018-04-23T09:23:19.876Z,53.22
2018-04-23T09:25:48.092Z,52.11
2018-04-23T09:28:16.290Z,52.05
2018-04-23T09:30:45.651Z,52.48
2018-04-23T09:33:13.890Z,50.46
2018-04-23T09:35:42.149Z,51.81
2018-04-23T09:38:10.775Z,51.45
2018-04-23T09:40:38.998Z,50.35
2018-04-23T09:43:07.281Z,50.50
2018-04-23T09:45:36.636Z,49.57
2018-04-23T09:48:05.338Z,49.89
2018-04-23T09:50:33.548Z,48.31
2018-04-23T09:53:01.755Z,49.01
2018-04-23T09:55:31.768Z,48.38
2018-04-23T09:58:00.499Z,48.88
2018-04-23T10:00:31.534Z,46.77
2018-04-23T10:03:14.604Z,47.57
2018-04-23T10:05:42.826Z,47.06
2018-04-23T10:08:11.191Z,46.66
2018-04-23T10:10:39.422Z,47.78
2018-04-23T10:13:07.813Z,47.27
2018-04-23T10:15:36.324Z,46.29
2018-04-23T10:18:04.559Z,46.87
2018-04-23T10:20:32.949Z,45.89
2018-04-23T10:23:01.447Z,46.95
2018-04-23T10:25:29.695Z,47.53
2018-04-23T10:27:57.944Z,47.80
2018-04-23T10:30:26.584Z,47.87
2018-04-23T10:32:54.806Z,46.63
2018-04-23T10:35:23.133Z,47.13
2018-04-23T10:37:51.710Z,47.31
2018-04-23T10:40:19.999Z,45.44
2018-04-23T10:42:48.201Z,45.30
2018-04-23T10:45:16.919Z,44.28
2018-04-23T10:47:45.193Z,44.25
2018-04-23T10:50:13.408Z,44.34
2018-04-23T10:52:41.909Z,44.19
2018-04-23T10:55:10.133Z,44.23
2018-04-23T10:57:38.644Z,44.32
2018-04-23T11:00:07.669Z,43.27
2018-04-23T11:02:35.889Z,42.37
2018-04-23T11:05:04.078Z,43.08
2018-04-23T11:07:32.562Z,42.76
2018-04-23T11:10:00.798Z,43.05
2018-04-23T11:12:28.974Z,43.42
2018-04-23T11:14:58.100Z,43.91
2018-04-23T11:17:26.804Z,43.33
2018-04-23T11:19:55.002Z,43.67
2018-04-23T11:22:23.177Z,43.66
2018-04-23T11:24:51.965Z,44.33
2018-04-23T11:27:20.190Z,43.36
2018-04-23T11:29:49.108Z,43.79
2018-04-23T11:32:17.709Z,42.21
2018-04-23T11:34:45.925Z,43.36
2018-04-23T11:37:14.203Z,40.68
2018-04-23T11:39:42.815Z,40.22
2018-04-23T11:42:12.172Z,41.12
2018-04-23T11:44:40.415Z,41.31
2018-04-23T11:47:08.626Z,40.86
2018-04-23T11:49:37.384Z,40.40
2018-04-23T11:52:05.591Z,40.38
2018-04-23T11:54:33.804Z,41.28
2018-04-23T11:57:02.540Z,40.16
2018-04-23T11:59:30.790Z,41.13
2018-04-23T12:01:59.011Z,41.40
2018-04-23T12:04:27.619Z,41.42
2018-04-23T12:06:56.368Z,41.41
2018-04-23T12:09:24.885Z,41.47
2018-04-23T12:11:53.328Z,40.69
2018-04-23T12:14:22.321Z,39.27
2018-04-23T12:16:51.351Z,37.13
2018-04-23T12:19:19.963Z,35.38
2018-04-23T12:21:48.632Z,34.61
2018-04-23T12:24:16.848Z,34.15
2018-04-23T12:26:45.054Z,33.10
2018-04-23T12:29:13.659Z,33.29
2018-04-23T12:31:41.905Z,33.09
2018-04-23T12:34:10.294Z,31.84
2018-04-23T12:36:38.798Z,32.21
2018-04-23T12:39:08.216Z,31.48
2018-04-23T12:41:36.421Z,32.00
2018-04-23T12:44:04.631Z,31.74
2018-04-23T12:46:33.306Z,30.55
2018-04-23T12:49:01.496Z,32.83
2018-04-23T12:51:29.725Z,32.81
2018-04-23T12:53:58.484Z,32.12
2018-04-23T12:56:26.693Z,31.04
2018-04-23T12:58:54.918Z,31.22
2018-04-23T13:01:23.517Z,30.58
2018-04-23T13:03:52.504Z,31.82
2018-04-23T13:06:21.058Z,30.97
2018-04-23T13:08:49.766Z,30.32
2018-04-23T13:11:17.971Z,30.77
2018-04-23T13:13:46.178Z,29.08
2018-04-23T13:16:14.902Z,29.28
2018-04-23T13:18:43.136Z,29.41
2018-04-23T13:21:11.431Z,29.28
2018-04-23T13:23:39.914Z,29.58
2018-04-23T13:26:08.146Z,27.85
2018-04-23T13:28:36.379Z,26.91
2018-04-23T13:31:05.009Z,28.34
2018-04-23T13:33:33.224Z,27.66
2018-04-23T13:36:01.455Z,27.96
2018-04-23T13:38:30.457Z,26.69
2018-04-23T13:41:00.423Z,27.80
2018-04-23T13:43:28.613Z,29.13
2018-04-23T13:45:56.821Z,29.51
2018-04-23T13:48:25.449Z,30.44
2018-04-23T13:50:53.886Z,30.95
2018-04-23T13:53:22.102Z,29.03
2018-04-23T13:55:50.505Z,29.86
2018-04-23T13:58:18.733Z,30.59
2018-04-23T14:00:46.966Z,29.57
2018-04-23T14:03:15.293Z,30.36
2018-04-23T14:05:43.514Z,31.41
2018-04-23T14:08:11.788Z,32.80
2018-04-23T14:10:41.251Z,31.93
2018-04-23T14:13:09.882Z,31.92
2018-04-23T14:15:38.062Z,30.91
2018-04-23T14:18:06.268Z,31.68
2018-04-23T14:20:34.873Z,30.73
2018-04-23T14:23:03.069Z,30.90
2018-04-23T14:25:31.269Z,30.65
2018-04-23T14:28:00.069Z,31.22
2018-04-23T14:30:28.618Z,31.54
2018-04-23T14:32:57.127Z,31.87
2018-04-23T14:35:25.649Z,32.28
2018-04-23T14:37:53.878Z,32.33
2018-04-23T14:40:22.288Z,33.10
2018-04-23T14:42:50.878Z,32.35
2018-04-23T14:45:19.118Z,32.35
2018-04-23T14:47:47.392Z,32.69
2018-04-23T14:50:15.956Z,33.50
2018-04-23T14:52:44.171Z,32.90
2018-04-23T14:55:12.581Z,32.50
2018-04-23T14:57:41.126Z,32.08
2018-04-23T15:00:10.675Z,31.69
2018-04-23T15:02:39.289Z,32.22
2018-04-23T15:05:07.847Z,32.61
2018-04-23T15:07:36.813Z,32.29
2018-04-23T15:10:05.000Z,32.21
2018-04-23T15:12:33.667Z,32.25
2018-04-23T15:15:02.311Z,32.45
2018-04-23T15:17:31.406Z,33.90
2018-04-23T15:20:00.229Z,33.67
2018-04-23T15:22:28.973Z,34.41
2018-04-23T15:24:57.431Z,35.11
2018-04-23T15:27:25.644Z,35.43
2018-04-23T15:29:53.972Z,35.70
2018-04-23T15:32:22.592Z,35.17
2018-04-23T15:34:50.858Z,34.98
2018-04-23T15:37:19.202Z,35.07
2018-04-23T15:39:47.725Z,35.72
2018-04-23T15:42:15.952Z,35.42
2018-04-23T15:44:44.176Z,35.46
2018-04-23T15:47:12.913Z,35.36
2018-04-23T15:49:41.152Z,35.40
2018-04-23T15:52:09.366Z,35.58
2018-04-23T15:54:38.089Z,35.90
2018-04-23T15:57:06.344Z,35.79
2018-04-23T15:59:34.567Z,35.71
2018-04-23T16:02:03.282Z,36.21
2018-04-23T16:04:31.520Z,36.30
2018-04-23T16:06:59.726Z,36.48
2018-04-23T16:09:28.254Z,36.80
2018-04-23T16:11:56.470Z,36.60
2018-04-23T16:14:24.671Z,36.69
2018-04-23T16:16:53.314Z,36.67
2018-04-23T16:19:21.544Z,36.55
2018-04-23T16:21:50.262Z,36.71
2018-04-23T16:24:18.659Z,36.76
2018-04-23T16:26:47.325Z,36.73
2018-04-23T16:29:15.526Z,36.99
2018-04-23T16:31:43.745Z,37.09
2018-04-23T16:34:12.381Z,37.22
2018-04-23T16:36:40.572Z,36.89
2018-04-23T16:39:08.784Z,37.62
2018-04-23T16:41:37.478Z,37.63
2018-04-23T16:44:05.665Z,37.96
2018-04-23T16:46:33.862Z,38.37
2018-04-23T16:49:02.624Z,38.34
2018-04-23T16:51:30.827Z,38.36
2018-04-23T16:53:59.028Z,38.46
2018-04-23T16:56:27.662Z,38.57
2018-04-23T16:58:55.875Z,38.64
2018-04-23T17:01:24.123Z,38.72
2018-04-23T17:03:53.464Z,39.91
2018-04-23T17:06:22.950Z,39.41
2018-04-23T17:08:52.239Z,39.21
2018-04-23T17:11:20.453Z,39.01
2018-04-23T17:13:49.025Z,38.97
2018-04-23T17:16:17.245Z,39.05
2018-04-23T17:18:45.460Z,39.23
2018-04-23T17:21:14.023Z,39.39
2018-04-23T17:26:16.603Z,39.71
2018-04-23T17:28:45.574Z,39.86
2018-04-23T17:31:14.140Z,40.31
2018-04-23T17:33:42.375Z,40.80
2018-04-23T17:36:10.855Z,41.04
2018-04-23T17:38:39.399Z,40.89
2018-04-23T17:41:07.606Z,40.45
2018-04-23T17:43:35.903Z,41.06
2018-04-23T17:46:04.987Z,41.05
2018-04-23T17:48:33.222Z,40.65
2018-04-23T17:51:01.779Z,40.27
2018-04-23T17:53:30.565Z,40.50
2018-04-23T17:55:58.802Z,40.88
2018-04-23T17:58:27.054Z,41.50
2018-04-23T18:00:55.638Z,41.58
2018-04-23T18:03:23.935Z,41.45
2018-04-23T18:05:52.241Z,42.14
2018-04-23T18:08:21.809Z,42.07
2018-04-23T18:10:50.523Z,41.98
2018-04-23T18:13:18.785Z,42.76
2018-04-23T18:15:46.972Z,43.11
2018-04-23T18:18:16.479Z,42.44
2018-04-23T18:20:45.222Z,42.92
2018-04-23T18:23:13.512Z,43.24
2018-04-23T18:25:42.187Z,42.87
2018-04-23T18:28:11.077Z,42.91
2018-04-23T18:33:13.658Z,43.63
2018-04-23T18:35:42.394Z,43.76
2018-04-23T18:38:11.117Z,44.22
2018-04-23T18:40:39.331Z,44.05
2018-04-23T18:43:07.834Z,44.22
2018-04-23T18:45:36.591Z,44.35
2018-04-23T18:48:04.812Z,45.22
2018-04-23T18:50:33.077Z,44.91
2018-04-23T18:53:01.828Z,45.03
2018-04-23T18:55:30.060Z,45.25
2018-04-23T18:57:58.333Z,45.41
2018-04-23T19:00:26.862Z,45.48
2018-04-23T19:02:55.107Z,45.26
2018-04-23T19:05:24.058Z,45.63
2018-04-23T19:07:52.344Z,45.43
2018-04-23T19:10:20.602Z,45.88
2018-04-23T19:12:49.673Z,46.00
2018-04-23T19:15:18.651Z,46.42
2018-04-23T19:17:47.087Z,46.36
2018-04-23T19:20:16.349Z,46.32
2018-04-23T19:22:44.926Z,46.23
2018-04-23T19:25:13.753Z,45.18
2018-04-23T19:27:41.985Z,45.06
2018-04-23T19:30:10.814Z,45.08
2018-04-23T19:32:39.455Z,45.29
2018-04-23T19:35:07.665Z,46.09
2018-04-23T19:37:36.877Z,44.95
2018-04-23T19:40:05.405Z,44.78
2018-04-23T19:42:34.121Z,45.02
2018-04-23T19:45:02.349Z,45.65
2018-04-23T19:47:30.550Z,45.66
2018-04-23T19:49:59.352Z,45.48
2018-04-23T19:52:27.560Z,45.51
2018-04-23T19:54:55.764Z,45.15
2018-04-23T19:57:24.468Z,45.90
2018-04-23T19:59:52.660Z,45.49
2018-04-23T20:02:20.921Z,44.61
2018-04-23T20:04:49.536Z,45.03
2018-04-23T20:07:17.911Z,44.96
2018-04-23T20:09:46.647Z,45.26
2018-04-23T20:12:15.239Z,45.24
2018-04-23T20:14:43.504Z,45.24
2018-04-23T20:17:11.799Z,45.21
2018-04-23T20:19:40.364Z,45.82
2018-04-23T20:22:08.595Z,45.39
2018-04-23T20:24:36.997Z,45.87
2018-04-23T20:27:05.493Z,46.34
2018-04-23T20:29:33.750Z,46.19
2018-04-23T20:32:02.113Z,46.17
2018-04-23T20:34:30.841Z,46.22
2018-04-23T20:36:59.265Z,46.12
2018-04-23T20:39:27.536Z,46.36
2018-04-23T20:41:56.519Z,46.32
2018-04-23T20:44:25.476Z,47.70
2018-04-23T20:46:55.279Z,47.43
2018-04-23T20:49:23.466Z,47.07
2018-04-23T20:51:52.307Z,47.16
2018-04-23T20:54:20.999Z,47.39
2018-04-23T20:56:49.254Z,48.43
2018-04-23T20:59:17.484Z,48.36
2018-04-23T21:01:46.104Z,47.73
2018-04-23T21:04:15.501Z,48.13
2018-04-23T21:06:43.703Z,48.47
2018-04-23T21:09:11.953Z,48.73
2018-04-23T21:11:40.600Z,49.81
2018-04-23T21:14:08.788Z,49.15
2018-04-23T21:16:37.052Z,49.89
2018-04-23T21:19:05.754Z,50.12
2018-04-23T21:21:33.978Z,50.30
2018-04-23T21:24:02.226Z,50.68
2018-04-23T21:26:30.843Z,50.91
2018-04-23T21:28:59.122Z,51.45
2018-04-23T21:31:27.363Z,51.21
2018-04-23T21:33:56.178Z,51.99
2018-04-23T21:36:24.378Z,52.31
2018-04-23T21:38:53.269Z,52.65
2018-04-23T21:41:21.902Z,53.29
2018-04-23T21:43:50.131Z,53.56
2018-04-23T21:46:18.523Z,54.13
2018-04-23T21:48:47.000Z,54.69
2018-04-23T21:51:15.281Z,53.99
2018-04-23T21:53:43.520Z,54.05
2018-04-23T21:56:12.043Z,54.18
2018-04-23T21:58:40.328Z,54.54
2018-04-23T22:01:08.555Z,53.96
2018-04-23T22:03:37.319Z,53.98
2018-04-23T22:06:05.591Z,53.93
2018-04-23T22:08:33.793Z,54.46
2018-04-23T22:11:02.508Z,53.87
2018-04-23T22:13:30.745Z,54.25
2018-04-23T22:15:58.941Z,54.19
2018-04-23T22:18:27.508Z,54.42
2018-04-23T22:20:55.696Z,54.63
2018-04-23T22:23:25.018Z,54.98
2018-04-23T22:25:53.419Z,54.77
2018-04-23T22:28:22.089Z,55.63
2018-04-23T22:30:50.304Z,55.20
2018-04-23T22:33:18.490Z,56.20
2018-04-23T22:35:47.232Z,55.96
2018-04-23T22:38:15.418Z,55.52
2018-04-23T22:40:43.682Z,55.60
2018-04-23T22:43:12.473Z,56.24
2018-04-23T22:45:40.707Z,57.22
2018-04-23T22:48:08.925Z,56.73
2018-04-23T22:50:37.718Z,56.46
2018-04-23T22:53:05.914Z,56.73
2018-04-23T22:55:34.203Z,56.39
2018-04-23T22:58:02.805Z,56.37
2018-04-23T23:00:30.998Z,55.50
2018-04-23T23:02:59.268Z,54.87
2018-04-23T23:05:28.071Z,54.85
2018-04-23T23:07:56.246Z,55.17
2018-04-23T23:10:24.453Z,55.03
2018-04-23T23:12:53.243Z,55.14
2018-04-23T23:15:21.433Z,55.44
2018-04-23T23:17:49.639Z,55.60
2018-04-23T23:20:18.391Z,55.75
2018-04-23T23:22:46.942Z,56.51
2018-04-23T23:25:15.470Z,56.75
2018-04-23T23:27:44.187Z,57.18
2018-04-23T23:30:12.864Z,57.37
2018-04-23T23:32:41.075Z,57.09
2018-04-23T23:35:09.654Z,57.44
2018-04-23T23:37:37.910Z,58.16
2018-04-23T23:40:06.123Z,57.67
2018-04-23T23:42:34.831Z,57.23
2018-04-23T23:45:03.036Z,57.63
2018-04-23T23:47:31.245Z,58.13
2018-04-23T23:50:00.043Z,58.71
2018-04-23T23:52:28.258Z,58.83
2018-04-23T23:54:56.475Z,58.10
2018-04-23T23:57:25.098Z,58.29
2018-04-23T23:59:53.335Z,58.26
